sensor_id;sensor_type;location;lat;lon;timestamp;P1;durP1;ratioP1;P2;durP2;ratioP2
19869;SDS011;10097;50.862;4.696;2024-03-08T00:00:17;35.17;;;14.93;;
19869;SDS011;10097;50.862;4.696;2024-03-08T00:02:43;29.67;;;14.00;;
19869;SDS011;10097;50.862;4.696;2024-03-08T00:05:10;31.80;;;15.23;;
19869;SDS011;10097;50.862;4.696;2024-03-08T00:07:40;32.77;;;14.67;;
19869;SDS011;10097;50.862;4.696;2024-03-08T00:10:07;32.37;;;15.63;;
19869;SDS011;10097;50.862;4.696;2024-03-08T00:12:36;30.73;;;14.13;;
19869;SDS011;10097;50.862;4.696;2024-03-08T00:15:13;28.33;;;14.00;;
19869;SDS011;10097;50.862;4.696;2024-03-08T00:17:40;33.50;;;14.70;;
19869;SDS011;10097;50.862;4.696;2024-03-08T00:20:06;30.77;;;13.87;;
19869;SDS011;10097;50.862;4.696;2024-03-08T00:22:35;28.40;;;13.47;;
19869;SDS011;10097;50.862;4.696;2024-03-08T00:25:04;28.77;;;14.10;;
19869;SDS011;10097;50.862;4.696;2024-03-08T00:27:33;30.07;;;15.17;;
19869;SDS011;10097;50.862;4.696;2024-03-08T00:29:59;31.30;;;14.63;;
19869;SDS011;10097;50.862;4.696;2024-03-08T00:32:26;29.33;;;14.23;;
19869;SDS011;10097;50.862;4.696;2024-03-08T00:34:52;30.50;;;15.10;;
19869;SDS011;10097;50.862;4.696;2024-03-08T00:37:19;27.30;;;14.90;;
19869;SDS011;10097;50.862;4.696;2024-03-08T00:39:49;32.67;;;15.27;;
19869;SDS011;10097;50.862;4.696;2024-03-08T00:42:16;29.57;;;14.37;;
19869;SDS011;10097;50.862;4.696;2024-03-08T00:44:42;26.97;;;14.40;;
19869;SDS011;10097;50.862;4.696;2024-03-08T00:47:07;32.10;;;15.83;;
19869;SDS011;10097;50.862;4.696;2024-03-08T00:49:33;31.37;;;15.90;;
19869;SDS011;10097;50.862;4.696;2024-03-08T00:51:59;29.87;;;15.77;;
19869;SDS011;10097;50.862;4.696;2024-03-08T00:54:25;31.13;;;16.73;;
19869;SDS011;10097;50.862;4.696;2024-03-08T00:56:51;30.80;;;16.33;;
19869;SDS011;10097;50.862;4.696;2024-03-08T00:59:17;30.43;;;15.90;;
19869;SDS011;10097;50.862;4.696;2024-03-08T01:01:42;31.33;;;16.63;;
19869;SDS011;10097;50.862;4.696;2024-03-08T01:04:09;29.57;;;15.83;;
19869;SDS011;10097;50.862;4.696;2024-03-08T01:06:35;34.60;;;16.23;;
19869;SDS011;10097;50.862;4.696;2024-03-08T01:09:00;31.23;;;16.63;;
19869;SDS011;10097;50.862;4.696;2024-03-08T01:11:26;31.17;;;15.87;;
19869;SDS011;10097;50.862;4.696;2024-03-08T01:13:53;33.17;;;16.00;;
19869;SDS011;10097;50.862;4.696;2024-03-08T01:16:19;30.17;;;16.47;;
19869;SDS011;10097;50.862;4.696;2024-03-08T01:18:47;29.87;;;17.27;;
19869;SDS011;10097;50.862;4.696;2024-03-08T01:21:13;30.90;;;16.20;;
19869;SDS011;10097;50.862;4.696;2024-03-08T01:23:39;31.63;;;17.63;;
19869;SDS011;10097;50.862;4.696;2024-03-08T01:26:04;33.10;;;16.93;;
19869;SDS011;10097;50.862;4.696;2024-03-08T01:28:31;36.57;;;17.57;;
19869;SDS011;10097;50.862;4.696;2024-03-08T01:30:59;33.50;;;16.73;;
19869;SDS011;10097;50.862;4.696;2024-03-08T01:33:25;33.27;;;17.33;;
19869;SDS011;10097;50.862;4.696;2024-03-08T01:35:52;29.63;;;16.20;;
19869;SDS011;10097;50.862;4.696;2024-03-08T01:38:18;31.10;;;17.27;;
19869;SDS011;10097;50.862;4.696;2024-03-08T01:40:46;30.77;;;17.47;;
19869;SDS011;10097;50.862;4.696;2024-03-08T01:43:19;31.07;;;17.17;;
19869;SDS011;10097;50.862;4.696;2024-03-08T01:45:52;32.90;;;17.83;;
19869;SDS011;10097;50.862;4.696;2024-03-08T01:48:18;34.90;;;17.67;;
19869;SDS011;10097;50.862;4.696;2024-03-08T01:50:47;29.10;;;18.00;;
19869;SDS011;10097;50.862;4.696;2024-03-08T01:53:12;34.63;;;18.67;;
19869;SDS011;10097;50.862;4.696;2024-03-08T01:55:40;33.07;;;18.30;;
19869;SDS011;10097;50.862;4.696;2024-03-08T01:58:06;32.80;;;18.43;;
19869;SDS011;10097;50.862;4.696;2024-03-08T02:00:35;29.27;;;17.33;;
19869;SDS011;10097;50.862;4.696;2024-03-08T02:03:05;31.50;;;18.23;;
19869;SDS011;10097;50.862;4.696;2024-03-08T02:05:31;33.50;;;18.27;;
19869;SDS011;10097;50.862;4.696;2024-03-08T02:07:57;29.37;;;17.77;;
19869;SDS011;10097;50.862;4.696;2024-03-08T02:10:23;34.33;;;18.87;;
19869;SDS011;10097;50.862;4.696;2024-03-08T02:12:48;32.27;;;18.47;;
19869;SDS011;10097;50.862;4.696;2024-03-08T02:15:14;30.73;;;17.93;;
19869;SDS011;10097;50.862;4.696;2024-03-08T02:17:40;32.40;;;17.70;;
19869;SDS011;10097;50.862;4.696;2024-03-08T02:20:06;32.63;;;18.20;;
19869;SDS011;10097;50.862;4.696;2024-03-08T02:22:34;33.30;;;19.27;;
19869;SDS011;10097;50.862;4.696;2024-03-08T02:25:00;30.73;;;18.53;;
19869;SDS011;10097;50.862;4.696;2024-03-08T02:27:28;32.33;;;18.23;;
19869;SDS011;10097;50.862;4.696;2024-03-08T02:29:55;32.10;;;18.53;;
19869;SDS011;10097;50.862;4.696;2024-03-08T02:32:22;33.07;;;19.33;;
19869;SDS011;10097;50.862;4.696;2024-03-08T02:34:48;32.87;;;18.40;;
19869;SDS011;10097;50.862;4.696;2024-03-08T02:37:14;36.43;;;18.10;;
19869;SDS011;10097;50.862;4.696;2024-03-08T02:39:40;31.10;;;18.40;;
19869;SDS011;10097;50.862;4.696;2024-03-08T02:42:06;33.77;;;18.87;;
19869;SDS011;10097;50.862;4.696;2024-03-08T02:44:32;32.77;;;19.70;;
19869;SDS011;10097;50.862;4.696;2024-03-08T02:47:01;29.97;;;18.47;;
19869;SDS011;10097;50.862;4.696;2024-03-08T02:49:26;30.30;;;18.77;;
19869;SDS011;10097;50.862;4.696;2024-03-08T02:51:53;33.70;;;20.23;;
19869;SDS011;10097;50.862;4.696;2024-03-08T02:54:19;34.27;;;19.07;;
19869;SDS011;10097;50.862;4.696;2024-03-08T02:56:45;35.33;;;19.13;;
19869;SDS011;10097;50.862;4.696;2024-03-08T02:59:17;35.37;;;20.90;;
19869;SDS011;10097;50.862;4.696;2024-03-08T03:01:43;34.37;;;19.33;;
19869;SDS011;10097;50.862;4.696;2024-03-08T03:04:09;35.40;;;20.87;;
19869;SDS011;10097;50.862;4.696;2024-03-08T03:06:35;34.00;;;20.50;;
19869;SDS011;10097;50.862;4.696;2024-03-08T03:09:01;35.17;;;19.90;;
19869;SDS011;10097;50.862;4.696;2024-03-08T03:11:27;35.83;;;19.90;;
19869;SDS011;10097;50.862;4.696;2024-03-08T03:13:53;34.00;;;19.70;;
19869;SDS011;10097;50.862;4.696;2024-03-08T03:16:19;35.50;;;20.03;;
19869;SDS011;10097;50.862;4.696;2024-03-08T03:18:45;30.90;;;19.60;;
19869;SDS011;10097;50.862;4.696;2024-03-08T03:21:11;32.53;;;18.60;;
19869;SDS011;10097;50.862;4.696;2024-03-08T03:23:38;32.77;;;19.43;;
19869;SDS011;10097;50.862;4.696;2024-03-08T03:26:05;37.53;;;20.43;;
19869;SDS011;10097;50.862;4.696;2024-03-08T03:28:37;35.37;;;20.37;;
19869;SDS011;10097;50.862;4.696;2024-03-08T03:31:06;36.70;;;20.83;;
19869;SDS011;10097;50.862;4.696;2024-03-08T03:33:32;37.13;;;19.53;;
19869;SDS011;10097;50.862;4.696;2024-03-08T03:35:59;36.57;;;21.33;;
19869;SDS011;10097;50.862;4.696;2024-03-08T03:38:26;35.47;;;20.17;;
19869;SDS011;10097;50.862;4.696;2024-03-08T03:40:53;33.47;;;20.17;;
19869;SDS011;10097;50.862;4.696;2024-03-08T03:43:22;33.20;;;18.97;;
19869;SDS011;10097;50.862;4.696;2024-03-08T03:45:48;33.97;;;20.00;;
19869;SDS011;10097;50.862;4.696;2024-03-08T03:48:14;35.60;;;20.30;;
19869;SDS011;10097;50.862;4.696;2024-03-08T03:50:40;35.83;;;21.30;;
19869;SDS011;10097;50.862;4.696;2024-03-08T03:53:05;33.43;;;19.67;;
19869;SDS011;10097;50.862;4.696;2024-03-08T03:55:33;36.80;;;21.10;;
19869;SDS011;10097;50.862;4.696;2024-03-08T03:57:59;36.13;;;20.30;;
19869;SDS011;10097;50.862;4.696;2024-03-08T04:00:26;36.67;;;21.67;;
19869;SDS011;10097;50.862;4.696;2024-03-08T04:02:52;37.57;;;21.20;;
19869;SDS011;10097;50.862;4.696;2024-03-08T04:05:18;34.93;;;20.40;;
19869;SDS011;10097;50.862;4.696;2024-03-08T04:07:43;36.50;;;22.00;;
19869;SDS011;10097;50.862;4.696;2024-03-08T04:10:10;33.83;;;19.37;;
19869;SDS011;10097;50.862;4.696;2024-03-08T04:12:36;32.63;;;19.83;;
19869;SDS011;10097;50.862;4.696;2024-03-08T04:15:02;33.17;;;19.27;;
19869;SDS011;10097;50.862;4.696;2024-03-08T04:17:32;30.37;;;19.40;;
19869;SDS011;10097;50.862;4.696;2024-03-08T04:20:02;39.07;;;20.07;;
19869;SDS011;10097;50.862;4.696;2024-03-08T04:22:34;33.80;;;20.20;;
19869;SDS011;10097;50.862;4.696;2024-03-08T04:25:01;31.93;;;18.97;;
19869;SDS011;10097;50.862;4.696;2024-03-08T04:27:27;34.37;;;19.83;;
19869;SDS011;10097;50.862;4.696;2024-03-08T04:29:52;37.80;;;21.30;;
19869;SDS011;10097;50.862;4.696;2024-03-08T04:32:18;35.60;;;21.10;;
19869;SDS011;10097;50.862;4.696;2024-03-08T04:34:44;36.63;;;20.43;;
19869;SDS011;10097;50.862;4.696;2024-03-08T04:37:09;36.00;;;20.03;;
19869;SDS011;10097;50.862;4.696;2024-03-08T04:39:38;37.33;;;20.87;;
19869;SDS011;10097;50.862;4.696;2024-03-08T04:42:04;37.40;;;20.60;;
19869;SDS011;10097;50.862;4.696;2024-03-08T04:44:34;33.37;;;19.50;;
19869;SDS011;10097;50.862;4.696;2024-03-08T04:47:01;35.83;;;21.07;;
19869;SDS011;10097;50.862;4.696;2024-03-08T04:49:26;36.17;;;21.23;;
19869;SDS011;10097;50.862;4.696;2024-03-08T04:51:53;37.70;;;21.03;;
19869;SDS011;10097;50.862;4.696;2024-03-08T04:54:18;34.93;;;20.83;;
19869;SDS011;10097;50.862;4.696;2024-03-08T04:56:44;35.30;;;20.03;;
19869;SDS011;10097;50.862;4.696;2024-03-08T04:59:10;34.90;;;20.13;;
19869;SDS011;10097;50.862;4.696;2024-03-08T05:01:36;33.50;;;20.17;;
19869;SDS011;10097;50.862;4.696;2024-03-08T05:04:03;34.17;;;19.07;;
19869;SDS011;10097;50.862;4.696;2024-03-08T05:06:29;33.13;;;20.23;;
19869;SDS011;10097;50.862;4.696;2024-03-08T05:08:55;32.73;;;19.87;;
19869;SDS011;10097;50.862;4.696;2024-03-08T05:11:21;38.37;;;19.63;;
19869;SDS011;10097;50.862;4.696;2024-03-08T05:13:46;37.17;;;19.97;;
19869;SDS011;10097;50.862;4.696;2024-03-08T05:16:12;35.67;;;20.73;;
19869;SDS011;10097;50.862;4.696;2024-03-08T05:18:40;37.13;;;19.43;;
19869;SDS011;10097;50.862;4.696;2024-03-08T05:21:07;36.13;;;19.20;;
19869;SDS011;10097;50.862;4.696;2024-03-08T05:23:34;32.70;;;19.60;;
19869;SDS011;10097;50.862;4.696;2024-03-08T05:26:00;36.70;;;18.83;;
19869;SDS011;10097;50.862;4.696;2024-03-08T05:28:26;38.83;;;20.73;;
19869;SDS011;10097;50.862;4.696;2024-03-08T05:30:51;34.13;;;19.53;;
19869;SDS011;10097;50.862;4.696;2024-03-08T05:33:17;35.77;;;20.13;;
19869;SDS011;10097;50.862;4.696;2024-03-08T05:35:44;36.67;;;20.07;;
19869;SDS011;10097;50.862;4.696;2024-03-08T05:38:10;37.83;;;19.83;;
19869;SDS011;10097;50.862;4.696;2024-03-08T05:40:37;35.90;;;20.13;;
19869;SDS011;10097;50.862;4.696;2024-03-08T05:43:03;40.97;;;21.07;;
19869;SDS011;10097;50.862;4.696;2024-03-08T05:45:30;35.50;;;20.63;;
19869;SDS011;10097;50.862;4.696;2024-03-08T05:47:56;35.47;;;21.47;;
19869;SDS011;10097;50.862;4.696;2024-03-08T05:50:21;39.90;;;21.40;;
19869;SDS011;10097;50.862;4.696;2024-03-08T05:52:47;34.37;;;19.40;;
19869;SDS011;10097;50.862;4.696;2024-03-08T05:55:13;35.90;;;20.77;;
19869;SDS011;10097;50.862;4.696;2024-03-08T05:57:39;36.20;;;19.37;;
19869;SDS011;10097;50.862;4.696;2024-03-08T06:00:07;36.43;;;20.97;;
19869;SDS011;10097;50.862;4.696;2024-03-08T06:02:36;35.27;;;20.00;;
19869;SDS011;10097;50.862;4.696;2024-03-08T06:05:07;35.07;;;19.97;;
19869;SDS011;10097;50.862;4.696;2024-03-08T06:07:34;34.43;;;19.63;;
19869;SDS011;10097;50.862;4.696;2024-03-08T06:10:01;38.97;;;20.67;;
19869;SDS011;10097;50.862;4.696;2024-03-08T06:12:26;39.87;;;20.50;;
19869;SDS011;10097;50.862;4.696;2024-03-08T06:14:57;35.73;;;19.97;;
19869;SDS011;10097;50.862;4.696;2024-03-08T06:17:23;40.30;;;19.63;;
19869;SDS011;10097;50.862;4.696;2024-03-08T06:19:50;36.90;;;20.33;;
19869;SDS011;10097;50.862;4.696;2024-03-08T06:22:17;36.77;;;20.50;;
19869;SDS011;10097;50.862;4.696;2024-03-08T06:24:44;36.73;;;20.37;;
19869;SDS011;10097;50.862;4.696;2024-03-08T06:27:10;36.83;;;20.77;;
19869;SDS011;10097;50.862;4.696;2024-03-08T06:29:36;37.43;;;21.40;;
19869;SDS011;10097;50.862;4.696;2024-03-08T06:32:01;35.37;;;19.07;;
19869;SDS011;10097;50.862;4.696;2024-03-08T06:34:27;35.70;;;20.50;;
19869;SDS011;10097;50.862;4.696;2024-03-08T06:36:53;38.97;;;20.80;;
19869;SDS011;10097;50.862;4.696;2024-03-08T06:39:25;36.53;;;20.37;;
19869;SDS011;10097;50.862;4.696;2024-03-08T06:41:51;35.93;;;20.37;;
19869;SDS011;10097;50.862;4.696;2024-03-08T06:44:17;34.73;;;19.77;;
19869;SDS011;10097;50.862;4.696;2024-03-08T06:46:46;35.00;;;20.27;;
19869;SDS011;10097;50.862;4.696;2024-03-08T06:49:13;39.40;;;20.27;;
19869;SDS011;10097;50.862;4.696;2024-03-08T06:51:40;39.03;;;20.10;;
19869;SDS011;10097;50.862;4.696;2024-03-08T06:54:06;34.60;;;19.20;;
19869;SDS011;10097;50.862;4.696;2024-03-08T06:56:37;35.60;;;20.13;;
19869;SDS011;10097;50.862;4.696;2024-03-08T06:59:03;37.67;;;20.73;;
19869;SDS011;10097;50.862;4.696;2024-03-08T07:01:31;38.57;;;19.97;;
19869;SDS011;10097;50.862;4.696;2024-03-08T07:03:57;35.23;;;20.77;;
19869;SDS011;10097;50.862;4.696;2024-03-08T07:06:23;31.90;;;19.07;;
19869;SDS011;10097;50.862;4.696;2024-03-08T07:08:49;39.30;;;19.33;;
19869;SDS011;10097;50.862;4.696;2024-03-08T07:11:14;35.87;;;19.57;;
19869;SDS011;10097;50.862;4.696;2024-03-08T07:13:46;37.27;;;19.70;;
19869;SDS011;10097;50.862;4.696;2024-03-08T07:16:12;39.77;;;20.23;;
19869;SDS011;10097;50.862;4.696;2024-03-08T07:18:37;34.53;;;18.67;;
19869;SDS011;10097;50.862;4.696;2024-03-08T07:21:08;35.90;;;19.90;;
19869;SDS011;10097;50.862;4.696;2024-03-08T07:23:35;35.43;;;19.23;;
19869;SDS011;10097;50.862;4.696;2024-03-08T07:26:34;35.27;;;18.43;;
19869;SDS011;10097;50.862;4.696;2024-03-08T07:29:00;41.33;;;19.70;;
19869;SDS011;10097;50.862;4.696;2024-03-08T07:31:26;36.10;;;19.57;;
19869;SDS011;10097;50.862;4.696;2024-03-08T07:34:03;36.77;;;19.60;;
19869;SDS011;10097;50.862;4.696;2024-03-08T07:36:32;36.90;;;19.10;;
19869;SDS011;10097;50.862;4.696;2024-03-08T07:39:00;32.60;;;17.90;;
19869;SDS011;10097;50.862;4.696;2024-03-08T07:41:26;38.23;;;18.97;;
19869;SDS011;10097;50.862;4.696;2024-03-08T07:43:54;35.53;;;19.40;;
19869;SDS011;10097;50.862;4.696;2024-03-08T07:46:19;38.10;;;19.77;;
19869;SDS011;10097;50.862;4.696;2024-03-08T07:48:45;36.70;;;18.60;;
19869;SDS011;10097;50.862;4.696;2024-03-08T07:51:11;39.13;;;19.40;;
19869;SDS011;10097;50.862;4.696;2024-03-08T07:53:37;39.43;;;18.57;;
19869;SDS011;10097;50.862;4.696;2024-03-08T07:56:03;36.30;;;19.53;;
19869;SDS011;10097;50.862;4.696;2024-03-08T07:58:32;36.70;;;18.63;;
19869;SDS011;10097;50.862;4.696;2024-03-08T08:00:58;37.27;;;18.93;;
19869;SDS011;10097;50.862;4.696;2024-03-08T08:03:23;33.47;;;17.33;;
19869;SDS011;10097;50.862;4.696;2024-03-08T08:05:50;37.17;;;19.27;;
19869;SDS011;10097;50.862;4.696;2024-03-08T08:08:16;34.27;;;18.73;;
19869;SDS011;10097;50.862;4.696;2024-03-08T08:10:41;30.77;;;18.43;;
19869;SDS011;10097;50.862;4.696;2024-03-08T08:13:07;33.97;;;18.57;;
19869;SDS011;10097;50.862;4.696;2024-03-08T08:15:33;34.83;;;18.27;;
19869;SDS011;10097;50.862;4.696;2024-03-08T08:17:59;34.37;;;18.23;;
19869;SDS011;10097;50.862;4.696;2024-03-08T08:20:25;33.97;;;18.30;;
19869;SDS011;10097;50.862;4.696;2024-03-08T08:22:53;34.53;;;18.60;;
19869;SDS011;10097;50.862;4.696;2024-03-08T08:25:20;31.47;;;17.63;;
19869;SDS011;10097;50.862;4.696;2024-03-08T08:27:47;36.63;;;18.33;;
19869;SDS011;10097;50.862;4.696;2024-03-08T08:30:13;35.53;;;17.70;;
19869;SDS011;10097;50.862;4.696;2024-03-08T08:32:39;30.33;;;17.23;;
19869;SDS011;10097;50.862;4.696;2024-03-08T08:35:07;34.10;;;18.00;;
19869;SDS011;10097;50.862;4.696;2024-03-08T08:37:40;34.00;;;18.47;;
19869;SDS011;10097;50.862;4.696;2024-03-08T08:40:06;33.43;;;17.97;;
19869;SDS011;10097;50.862;4.696;2024-03-08T08:42:39;35.37;;;17.53;;
19869;SDS011;10097;50.862;4.696;2024-03-08T08:45:05;30.63;;;16.70;;
19869;SDS011;10097;50.862;4.696;2024-03-08T08:47:37;32.33;;;18.50;;
19869;SDS011;10097;50.862;4.696;2024-03-08T08:50:03;30.27;;;16.43;;
19869;SDS011;10097;50.862;4.696;2024-03-08T08:52:30;31.07;;;17.37;;
19869;SDS011;10097;50.862;4.696;2024-03-08T08:54:57;31.60;;;16.07;;
19869;SDS011;10097;50.862;4.696;2024-03-08T08:57:23;34.03;;;17.83;;
19869;SDS011;10097;50.862;4.696;2024-03-08T08:59:49;31.80;;;16.93;;
19869;SDS011;10097;50.862;4.696;2024-03-08T09:02:15;31.73;;;17.63;;
19869;SDS011;10097;50.862;4.696;2024-03-08T09:04:41;29.33;;;16.97;;
19869;SDS011;10097;50.862;4.696;2024-03-08T09:07:08;29.77;;;16.00;;
19869;SDS011;10097;50.862;4.696;2024-03-08T09:09:34;31.53;;;16.73;;
19869;SDS011;10097;50.862;4.696;2024-03-08T09:12:00;32.03;;;17.30;;
19869;SDS011;10097;50.862;4.696;2024-03-08T09:14:26;32.13;;;16.47;;
19869;SDS011;10097;50.862;4.696;2024-03-08T09:16:51;31.37;;;16.73;;
19869;SDS011;10097;50.862;4.696;2024-03-08T09:19:17;28.83;;;15.23;;
19869;SDS011;10097;50.862;4.696;2024-03-08T09:21:44;27.47;;;16.33;;
19869;SDS011;10097;50.862;4.696;2024-03-08T09:24:10;30.10;;;15.87;;
19869;SDS011;10097;50.862;4.696;2024-03-08T09:26:37;30.73;;;15.77;;
19869;SDS011;10097;50.862;4.696;2024-03-08T09:29:03;29.37;;;15.53;;
19869;SDS011;10097;50.862;4.696;2024-03-08T09:31:30;27.17;;;15.70;;
19869;SDS011;10097;50.862;4.696;2024-03-08T09:33:56;26.17;;;14.77;;
19869;SDS011;10097;50.862;4.696;2024-03-08T09:36:22;28.97;;;15.63;;
19869;SDS011;10097;50.862;4.696;2024-03-08T09:38:47;28.60;;;15.67;;
19869;SDS011;10097;50.862;4.696;2024-03-08T09:41:15;26.47;;;14.63;;
19869;SDS011;10097;50.862;4.696;2024-03-08T09:43:40;27.77;;;14.67;;
19869;SDS011;10097;50.862;4.696;2024-03-08T09:46:06;30.60;;;15.13;;
19869;SDS011;10097;50.862;4.696;2024-03-08T09:48:33;26.43;;;14.50;;
19869;SDS011;10097;50.862;4.696;2024-03-08T09:50:59;28.30;;;14.83;;
19869;SDS011;10097;50.862;4.696;2024-03-08T09:53:25;26.50;;;14.57;;
19869;SDS011;10097;50.862;4.696;2024-03-08T09:55:51;25.27;;;14.63;;
19869;SDS011;10097;50.862;4.696;2024-03-08T09:58:17;29.93;;;14.27;;
19869;SDS011;10097;50.862;4.696;2024-03-08T10:00:58;26.67;;;13.87;;
19869;SDS011;10097;50.862;4.696;2024-03-08T10:03:26;26.37;;;14.67;;
19869;SDS011;10097;50.862;4.696;2024-03-08T10:05:53;23.47;;;14.67;;
19869;SDS011;10097;50.862;4.696;2024-03-08T10:08:28;23.53;;;13.93;;
19869;SDS011;10097;50.862;4.696;2024-03-08T10:10:54;27.97;;;13.73;;
19869;SDS011;10097;50.862;4.696;2024-03-08T10:13:23;24.83;;;14.43;;
19869;SDS011;10097;50.862;4.696;2024-03-08T10:15:52;26.53;;;14.10;;
19869;SDS011;10097;50.862;4.696;2024-03-08T10:18:18;26.77;;;12.83;;
19869;SDS011;10097;50.862;4.696;2024-03-08T10:20:43;26.83;;;14.07;;
19869;SDS011;10097;50.862;4.696;2024-03-08T10:23:09;26.43;;;14.63;;
19869;SDS011;10097;50.862;4.696;2024-03-08T10:25:35;24.40;;;13.93;;
19869;SDS011;10097;50.862;4.696;2024-03-08T10:28:05;22.77;;;12.63;;
19869;SDS011;10097;50.862;4.696;2024-03-08T10:30:31;28.73;;;14.13;;
19869;SDS011;10097;50.862;4.696;2024-03-08T10:32:57;25.30;;;14.30;;
19869;SDS011;10097;50.862;4.696;2024-03-08T10:35:23;23.67;;;13.20;;
19869;SDS011;10097;50.862;4.696;2024-03-08T10:37:51;23.33;;;13.83;;
19869;SDS011;10097;50.862;4.696;2024-03-08T10:40:28;23.27;;;13.33;;
19869;SDS011;10097;50.862;4.696;2024-03-08T10:42:55;26.23;;;14.00;;
19869;SDS011;10097;50.862;4.696;2024-03-08T10:47:53;27.73;;;14.07;;
19869;SDS011;10097;50.862;4.696;2024-03-08T10:50:41;23.77;;;13.60;;
19869;SDS011;10097;50.862;4.696;2024-03-08T10:53:11;22.30;;;12.83;;
19869;SDS011;10097;50.862;4.696;2024-03-08T10:55:39;27.77;;;14.23;;
19869;SDS011;10097;50.862;4.696;2024-03-08T10:58:08;23.33;;;13.07;;
19869;SDS011;10097;50.862;4.696;2024-03-08T11:00:35;23.43;;;13.10;;
19869;SDS011;10097;50.862;4.696;2024-03-08T11:03:02;26.70;;;12.97;;
19869;SDS011;10097;50.862;4.696;2024-03-08T11:05:35;24.60;;;13.73;;
19869;SDS011;10097;50.862;4.696;2024-03-08T11:08:15;25.50;;;14.33;;
19869;SDS011;10097;50.862;4.696;2024-03-08T11:10:52;24.03;;;13.40;;
19869;SDS011;10097;50.862;4.696;2024-03-08T11:16:06;23.47;;;12.87;;
19869;SDS011;10097;50.862;4.696;2024-03-08T11:18:35;21.47;;;12.40;;
19869;SDS011;10097;50.862;4.696;2024-03-08T11:21:02;25.83;;;14.03;;
19869;SDS011;10097;50.862;4.696;2024-03-08T11:23:40;24.77;;;13.10;;
19869;SDS011;10097;50.862;4.696;2024-03-08T11:26:19;24.63;;;13.60;;
19869;SDS011;10097;50.862;4.696;2024-03-08T11:28:45;21.77;;;12.40;;
19869;SDS011;10097;50.862;4.696;2024-03-08T11:33:39;25.00;;;13.20;;
19869;SDS011;10097;50.862;4.696;2024-03-08T11:36:13;22.77;;;12.37;;
19869;SDS011;10097;50.862;4.696;2024-03-08T11:38:47;23.07;;;13.23;;
19869;SDS011;10097;50.862;4.696;2024-03-08T11:41:23;23.90;;;13.53;;
19869;SDS011;10097;50.862;4.696;2024-03-08T11:43:58;25.53;;;12.90;;
19869;SDS011;10097;50.862;4.696;2024-03-08T11:46:30;23.30;;;13.40;;
19869;SDS011;10097;50.862;4.696;2024-03-08T11:48:56;23.50;;;12.63;;
19869;SDS011;10097;50.862;4.696;2024-03-08T11:51:22;25.03;;;12.97;;
19869;SDS011;10097;50.862;4.696;2024-03-08T11:53:49;24.13;;;12.53;;
19869;SDS011;10097;50.862;4.696;2024-03-08T11:56:15;22.43;;;12.77;;
19869;SDS011;10097;50.862;4.696;2024-03-08T11:58:41;23.40;;;12.90;;
19869;SDS011;10097;50.862;4.696;2024-03-08T12:01:08;24.17;;;12.97;;
19869;SDS011;10097;50.862;4.696;2024-03-08T12:03:37;22.23;;;12.83;;
19869;SDS011;10097;50.862;4.696;2024-03-08T12:06:07;23.63;;;13.17;;
19869;SDS011;10097;50.862;4.696;2024-03-08T12:08:38;22.93;;;13.20;;
19869;SDS011;10097;50.862;4.696;2024-03-08T12:11:04;23.20;;;12.10;;
19869;SDS011;10097;50.862;4.696;2024-03-08T12:13:30;20.07;;;12.30;;
19869;SDS011;10097;50.862;4.696;2024-03-08T12:15:58;23.20;;;12.10;;
19869;SDS011;10097;50.862;4.696;2024-03-08T12:18:26;28.80;;;12.73;;
19869;SDS011;10097;50.862;4.696;2024-03-08T12:23:39;23.77;;;12.27;;
19869;SDS011;10097;50.862;4.696;2024-03-08T12:26:14;24.07;;;13.07;;
19869;SDS011;10097;50.862;4.696;2024-03-08T12:28:42;22.70;;;12.17;;
19869;SDS011;10097;50.862;4.696;2024-03-08T12:31:11;22.70;;;12.60;;
19869;SDS011;10097;50.862;4.696;2024-03-08T12:33:37;20.20;;;11.97;;
19869;SDS011;10097;50.862;4.696;2024-03-08T12:36:16;23.77;;;12.13;;
19869;SDS011;10097;50.862;4.696;2024-03-08T12:38:46;21.50;;;12.73;;
19869;SDS011;10097;50.862;4.696;2024-03-08T12:41:13;23.33;;;12.53;;
19869;SDS011;10097;50.862;4.696;2024-03-08T12:43:40;21.37;;;12.83;;
19869;SDS011;10097;50.862;4.696;2024-03-08T12:46:06;21.07;;;11.40;;
19869;SDS011;10097;50.862;4.696;2024-03-08T12:48:36;25.20;;;13.37;;
19869;SDS011;10097;50.862;4.696;2024-03-08T12:51:05;21.20;;;12.20;;
19869;SDS011;10097;50.862;4.696;2024-03-08T12:53:32;19.87;;;11.83;;
19869;SDS011;10097;50.862;4.696;2024-03-08T12:55:58;27.60;;;12.70;;
19869;SDS011;10097;50.862;4.696;2024-03-08T12:58:24;21.13;;;11.53;;
19869;SDS011;10097;50.862;4.696;2024-03-08T13:00:51;20.30;;;11.70;;
19869;SDS011;10097;50.862;4.696;2024-03-08T13:03:17;21.87;;;11.83;;
19869;SDS011;10097;50.862;4.696;2024-03-08T13:05:42;21.07;;;12.17;;
19869;SDS011;10097;50.862;4.696;2024-03-08T13:08:09;21.07;;;12.43;;
19869;SDS011;10097;50.862;4.696;2024-03-08T13:10:38;19.87;;;11.90;;
19869;SDS011;10097;50.862;4.696;2024-03-08T13:13:04;21.10;;;11.40;;
19869;SDS011;10097;50.862;4.696;2024-03-08T13:15:30;21.23;;;11.70;;
19869;SDS011;10097;50.862;4.696;2024-03-08T13:17:56;22.55;;;12.25;;
19869;SDS011;10097;50.862;4.696;2024-03-08T13:20:25;22.90;;;12.30;;
19869;SDS011;10097;50.862;4.696;2024-03-08T13:22:53;23.73;;;12.40;;
19869;SDS011;10097;50.862;4.696;2024-03-08T13:25:20;19.35;;;11.88;;
19869;SDS011;10097;50.862;4.696;2024-03-08T13:27:46;18.08;;;11.55;;
19869;SDS011;10097;50.862;4.696;2024-03-08T13:30:12;19.05;;;11.48;;
19869;SDS011;10097;50.862;4.696;2024-03-08T13:32:41;21.15;;;11.73;;
19869;SDS011;10097;50.862;4.696;2024-03-08T13:35:10;20.38;;;12.18;;
19869;SDS011;10097;50.862;4.696;2024-03-08T13:37:40;19.65;;;11.65;;
19869;SDS011;10097;50.862;4.696;2024-03-08T13:40:07;21.83;;;12.57;;
19869;SDS011;10097;50.862;4.696;2024-03-08T13:42:41;23.52;;;11.90;;
19869;SDS011;10097;50.862;4.696;2024-03-08T13:45:10;20.67;;;12.35;;
19869;SDS011;10097;50.862;4.696;2024-03-08T13:47:36;18.77;;;11.10;;
19869;SDS011;10097;50.862;4.696;2024-03-08T13:50:04;24.90;;;12.02;;
19869;SDS011;10097;50.862;4.696;2024-03-08T13:52:32;20.60;;;11.85;;
19869;SDS011;10097;50.862;4.696;2024-03-08T13:55:00;19.55;;;11.35;;
19869;SDS011;10097;50.862;4.696;2024-03-08T13:57:26;21.73;;;11.48;;
19869;SDS011;10097;50.862;4.696;2024-03-08T13:59:52;22.92;;;11.65;;
19869;SDS011;10097;50.862;4.696;2024-03-08T14:02:18;25.40;;;11.60;;
19869;SDS011;10097;50.862;4.696;2024-03-08T14:04:44;19.27;;;11.38;;
19869;SDS011;10097;50.862;4.696;2024-03-08T14:07:10;18.92;;;11.15;;
19869;SDS011;10097;50.862;4.696;2024-03-08T14:09:36;22.50;;;12.30;;
19869;SDS011;10097;50.862;4.696;2024-03-08T14:12:08;17.67;;;10.52;;
19869;SDS011;10097;50.862;4.696;2024-03-08T14:14:34;18.67;;;11.82;;
19869;SDS011;10097;50.862;4.696;2024-03-08T14:17:02;21.13;;;10.90;;
19869;SDS011;10097;50.862;4.696;2024-03-08T14:19:29;19.00;;;10.70;;
19869;SDS011;10097;50.862;4.696;2024-03-08T14:21:56;20.30;;;11.07;;
19869;SDS011;10097;50.862;4.696;2024-03-08T14:24:24;19.30;;;10.88;;
19869;SDS011;10097;50.862;4.696;2024-03-08T14:26:50;19.30;;;11.18;;
19869;SDS011;10097;50.862;4.696;2024-03-08T14:29:16;18.55;;;10.73;;
19869;SDS011;10097;50.862;4.696;2024-03-08T14:31:43;20.77;;;10.88;;